Almagro, Spain
Current Conditions -  °F | °C
As of 1:00 PM on Friday 24 Oct 2014 (Local Time) from LEAO Reporting Station
Clear Clear  
Wind Chill: 72°   Ceiling: Unl
Heat Index: 72°   Visibility: 6mi
Dew Point: 45°   Wind: 6mph
Humidity: 38%   Direction: 60°ENE
Pressure: 30.12"   Gusts: NA
Location:  38.89°N, 3.71°W
Report Text: LEAO 241100Z 06005KT 330V120 CAVOK 22/07 Q1020
Loading
Personal Weather Stations






























Interactive Weather Map
Tropical Storm Tracking
New forecast layout! Learn more

10-Day Weather Forecast

Advertisements
Track Severe Weather on mobile